Terminal Aerodrome Forecast
Issued by NWS

Home | Current Version | Previous Version | Text Only | Print | Product List | Glossary On
Versions: 1 2 3 4 5 6 7 8 9 10 11 12 13 14 15 16
169
FTUS42 TJSJ 291429 AAB
TAFJSJ
TAF AMD
TJSJ 291429Z 2914/3012 10003KT P6SM VCTS SCT022CB SCT050 BKN100
      TEMPO 2914/2916 VRB12G20KT 5SM SHRA BKN025
     FM291700 09012KT P6SM VCTS SCT022CB BKN040 BKN090
     FM292200 12007KT P6SM SCT030 SCT100=

USA.gov is the U.S. government's official web portal to all federal, state and local government web resources and services.